Time;durP1;ratioP1;P1;durP2;ratioP2;P2;SDS_P1;SDS_P2;PMS_P1;PMS_P2;Temp;Humidity;BMP_temperature;BMP_pressure;BME280_temperature;BME280_humidity;BME280_pressure;Samples;Min_cycle;Max_cycle;Signal;HPM_P1;HPM_P2
2022/06/20 00:02:23;;;;;;;;;;;26.90;95.20;;;;;;5047397;28;20020;-56
2022/06/20 00:04:50;;;;;;;;;;;26.90;95.60;;;;;;5047617;28;19956;-55
2022/06/20 00:07:17;;;;;;;;;;;26.90;95.50;;;;;;5047206;28;19905;-57
2022/06/20 00:09:43;;;;;;;;;;;26.90;95.40;;;;;;5047098;28;20263;-59
2022/06/20 00:12:15;;;;;;;;;;;26.90;95.60;;;;;;5047125;28;19905;-52
2022/06/20 00:14:41;;;;;;;;;;;26.90;95.80;;;;;;5047215;28;20151;-57
2022/06/20 00:17:11;;;;;;;;;;;26.90;95.70;;;;;;5047307;28;19951;-56
2022/06/20 00:19:37;;;;;;;;;;;26.90;95.70;;;;;;5047600;28;19909;-53
2022/06/20 00:22:03;;;;;;;;;;;26.90;95.70;;;;;;5047903;28;20158;-55
2022/06/20 00:24:30;;;;;;;;;;;26.90;95.60;;;;;;5047637;28;19909;-56
2022/06/20 00:26:56;;;;;;;;;;;26.80;95.60;;;;;;5047215;28;19909;-54
2022/06/20 00:29:22;;;;;;;;;;;26.80;95.60;;;;;;5047397;28;19917;-54
2022/06/20 00:31:49;;;;;;;;;;;26.80;95.60;;;;;;5046608;28;19939;-52
2022/06/20 00:34:15;;;;;;;;;;;26.70;95.70;;;;;;5045503;28;19909;-54
2022/06/20 00:36:41;;;;;;;;;;;26.50;95.70;;;;;;5037204;28;19913;-47
2022/06/20 00:39:07;;;;;;;;;;;26.40;95.90;;;;;;5027167;28;19906;-51
2022/06/20 00:41:34;;;;;;;;;;;26.40;96.00;;;;;;5026645;28;19920;-53
2022/06/20 00:44:01;;;;;;;;;;;26.30;96.10;;;;;;5027100;28;19952;-50
2022/06/20 00:46:39;;;;;;;;;;;26.20;96.20;;;;;;5034782;28;19921;-48
2022/06/20 00:49:11;;;;;;;;;;;26.20;96.20;;;;;;5045836;28;19940;-52
2022/06/20 00:51:40;;;;;;;;;;;26.10;96.40;;;;;;5046527;28;19988;-52
2022/06/20 00:54:19;;;;;;;;;;;26.10;96.40;;;;;;5046677;28;19909;-51
2022/06/20 00:56:53;;;;;;;;;;;26.10;96.70;;;;;;5044315;28;19914;-54
2022/06/20 00:59:24;;;;;;;;;;;26.10;96.60;;;;;;5025205;28;19921;-57
2022/06/20 01:01:51;;;;;;;;;;;26.20;96.50;;;;;;5024650;28;19910;-55
2022/06/20 01:04:39;;;;;;;198.77;11.60;;;26.20;96.40;;;;;;5026512;28;19913;-53
2022/06/20 01:07:10;;;;;;;15.88;4.28;;;26.40;96.50;;;;;;5025843;28;20018;-55
2022/06/20 01:09:43;;;;;;;10.88;4.45;;;26.40;96.00;;;;;;5025582;28;20030;-57
2022/06/20 01:12:17;;;;;;;17.10;4.47;;;26.40;96.10;;;;;;5025131;28;20077;-55
2022/06/20 01:14:43;;;;;;;10.30;3.92;;;26.40;96.20;;;;;;5025516;28;20075;-53
2022/06/20 01:17:27;;;;;;;11.30;4.22;;;26.40;96.20;;;;;;5026083;28;20025;-57
2022/06/20 01:20:03;;;;;;;13.73;4.88;;;26.40;96.20;;;;;;5025995;28;20049;-62
2022/06/20 01:22:44;;;;;;;14.43;4.68;;;26.30;96.30;;;;;;5025859;28;20053;-57
2022/06/20 01:25:17;;;;;;;11.80;3.90;;;26.30;96.30;;;;;;5025423;28;20046;-54
2022/06/20 01:27:46;;;;;;;15.48;4.53;;;26.30;96.30;;;;;;5025643;28;20109;-56
2022/06/20 01:30:13;;;;;;;14.02;4.72;;;26.30;96.40;;;;;;5025310;28;20310;-56
2022/06/20 01:32:40;;;;;;;12.25;4.50;;;26.30;96.40;;;;;;5025167;28;20270;-59
2022/06/20 01:35:11;;;;;;;10.15;4.63;;;26.30;96.30;;;;;;5024526;28;20026;-57
2022/06/20 01:37:42;;;;;;;13.35;4.68;;;26.30;96.30;;;;;;5025330;28;20022;-57
2022/06/20 01:40:12;;;;;;;14.93;4.65;;;26.30;96.30;;;;;;5024840;28;20026;-54
2022/06/20 01:42:42;;;;;;;12.10;4.40;;;26.30;96.30;;;;;;5024995;28;20030;-59
2022/06/20 01:48:11;;;;;;;12.23;4.43;;;26.30;96.20;;;;;;5025118;28;20248;-56
2022/06/20 01:50:40;;;;;;;11.10;4.63;;;26.30;96.20;;;;;;5025018;28;20022;-55
2022/06/20 01:53:09;;;;;;;12.20;4.75;;;26.20;96.20;;;;;;5025502;28;20021;-52
2022/06/20 01:55:36;;;;;;;10.98;4.60;;;26.20;96.20;;;;;;5025294;28;20032;-54
2022/06/20 01:58:14;;;;;;;15.20;5.05;;;26.20;96.20;;;;;;5024753;28;20018;-59
2022/06/20 02:00:41;;;;;;;13.57;4.22;;;26.20;96.20;;;;;;5024877;28;20046;-52
2022/06/20 02:03:13;;;;;;;11.77;4.53;;;26.20;96.10;;;;;;5025093;28;20049;-52
2022/06/20 02:05:44;;;;;;;11.15;4.47;;;26.20;96.10;;;;;;5024946;28;20048;-53
2022/06/20 02:08:13;;;;;;;11.63;4.47;;;26.20;96.10;;;;;;5024926;28;20201;-55
2022/06/20 02:10:47;;;;;;;10.57;4.80;;;26.20;96.10;;;;;;5024572;28;20045;-58
2022/06/20 02:13:16;;;;;;;10.73;5.05;;;26.20;96.10;;;;;;5024856;28;20056;-54
2022/06/20 02:15:45;;;;;;;9.80;4.80;;;26.20;96.10;;;;;;5024718;28;20022;-51
2022/06/20 02:18:12;;;;;;;7.93;4.25;;;26.20;96.10;;;;;;5024975;28;20026;-58
2022/06/20 02:20:46;;;;;;;10.90;4.35;;;26.20;96.00;;;;;;5024593;28;20312;-56
2022/06/20 02:23:17;;;;;;;7.90;3.58;;;26.10;96.00;;;;;;5024806;28;20029;-56
2022/06/20 02:25:45;;;;;;;9.60;4.00;;;26.10;96.00;;;;;;5024479;28;20022;-53
2022/06/20 02:28:21;;;;;;;8.20;4.18;;;26.10;96.00;;;;;;5024273;28;20064;-54
2022/06/20 02:30:48;;;;;;;7.43;4.03;;;26.10;96.00;;;;;;5024235;28;20068;-58
2022/06/20 02:33:22;;;;;;;12.40;4.15;;;26.10;96.00;;;;;;5024497;28;20037;-55
2022/06/20 02:35:50;;;;;;;8.30;4.00;;;26.10;96.00;;;;;;5024480;28;20061;-53
2022/06/20 02:38:17;;;;;;;8.77;4.65;;;26.10;96.00;;;;;;5024520;28;20205;-55
2022/06/20 02:40:44;;;;;;;9.43;4.40;;;26.10;96.00;;;;;;5023971;28;20089;-55
2022/06/20 02:43:41;;;;;;;8.35;3.75;;;26.10;96.10;;;;;;5024204;28;20029;-52
2022/06/20 02:46:16;;;;;;;10.13;4.25;;;26.10;96.10;;;;;;5024229;28;20025;-54
2022/06/20 02:48:47;;;;;;;8.60;4.00;;;26.10;96.10;;;;;;5024466;28;20094;-54
2022/06/20 02:51:20;;;;;;;8.63;3.58;;;26.10;96.10;;;;;;5023799;28;20044;-53
2022/06/20 02:53:57;;;;;;;7.47;3.50;;;26.00;96.00;;;;;;5024442;28;20021;-51
2022/06/20 02:56:27;;;;;;;6.32;3.47;;;26.00;96.10;;;;;;5023769;28;20091;-51
2022/06/20 02:59:00;;;;;;;6.90;3.38;;;26.00;96.10;;;;;;5023958;28;20048;-52
2022/06/20 03:01:38;;;;;;;12.63;3.83;;;26.00;96.10;;;;;;5024078;28;20040;-57
2022/06/20 03:04:07;;;;;;;8.88;3.78;;;26.00;96.10;;;;;;5024092;28;20022;-52
2022/06/20 03:06:44;;;;;;;10.38;3.63;;;26.00;96.20;;;;;;5023770;28;20068;-51
2022/06/20 03:09:15;;;;;;;8.95;3.50;;;26.00;96.10;;;;;;5024026;28;20053;-55
2022/06/20 03:11:42;;;;;;;12.18;4.15;;;26.00;96.10;;;;;;5023705;28;20373;-56
2022/06/20 03:14:14;;;;;;;10.05;3.50;;;26.00;96.10;;;;;;5024192;28;20209;-53
2022/06/20 03:16:41;;;;;;;9.57;3.80;;;26.00;96.20;;;;;;5023873;28;20325;-54
2022/06/20 03:19:16;;;;;;;6.75;3.17;;;26.00;96.10;;;;;;5024446;28;20055;-53
2022/06/20 03:21:46;;;;;;;15.02;3.83;;;25.90;96.00;;;;;;5023852;28;20330;-60
2022/06/20 03:24:17;;;;;;;12.32;3.42;;;25.90;96.00;;;;;;5028116;28;20029;-52
2022/06/20 03:26:44;;;;;;;7.57;3.13;;;26.00;96.00;;;;;;5027860;28;20336;-53
2022/06/20 03:29:14;;;;;;;9.35;3.30;;;26.00;96.00;;;;;;5027571;28;20033;-53
2022/06/20 03:31:41;;;;;;;9.95;3.30;;;26.00;96.10;;;;;;5027733;28;20036;-57
2022/06/20 03:34:08;;;;;;;7.55;3.10;;;25.90;96.10;;;;;;5027912;28;20021;-52
2022/06/20 03:36:35;;;;;;;7.90;3.00;;;25.90;96.00;;;;;;5027977;28;20057;-55
2022/06/20 03:39:05;;;;;;;7.78;2.80;;;25.90;96.10;;;;;;5028027;28;20022;-54
2022/06/20 03:41:33;;;;;;;8.57;3.30;;;25.90;96.00;;;;;;5027613;28;20036;-53
2022/06/20 03:44:05;;;;;;;7.43;2.53;;;25.90;96.00;;;;;;5059269;28;20029;-54
2022/06/20 03:46:54;;;;;;;9.95;2.95;;;25.90;95.90;;;;;;5027411;28;20021;-54
2022/06/20 03:49:28;;;;;;;7.57;2.40;;;25.90;95.90;;;;;;5026112;28;20044;-55
2022/06/20 03:52:04;;;;;;;7.20;2.88;;;25.90;95.70;;;;;;5027386;28;20081;-54
2022/06/20 03:55:02;;;;;;;7.30;2.42;;;25.80;95.70;;;;;;5027274;28;20030;-54
2022/06/20 03:57:34;;;;;;;7.13;2.67;;;25.90;95.70;;;;;;5027620;28;20029;-55
2022/06/20 04:00:35;;;;;;;7.95;2.58;;;25.80;95.70;;;;;;5027608;28;20054;-51
2022/06/20 04:03:37;;;;;;;7.82;2.42;;;25.80;95.80;;;;;;5026935;28;20042;-54
2022/06/20 04:06:12;;;;;;;10.80;2.58;;;25.80;95.90;;;;;;5026833;28;20030;-55
2022/06/20 04:11:47;;;;;;;9.07;2.63;;;25.80;95.80;;;;;;5027372;28;20033;-54
2022/06/20 04:14:21;;;;;;;;;;;25.70;95.70;;;;;;5028226;28;20085;-58
2022/06/20 04:18:27;;;;;;;6.45;2.30;;;25.70;95.80;;;;;;5027857;28;19901;-55
2022/06/20 04:19:51;;;;;;;6.75;2.08;;;25.70;95.80;;;;;;5027239;28;20030;-53
2022/06/20 04:22:21;;;;;;;6.10;1.90;;;25.70;95.80;;;;;;5027181;28;20037;-53
2022/06/20 04:25:25;;;;;;;7.68;2.50;;;25.70;95.90;;;;;;5028007;28;20217;-55
2022/06/20 04:27:58;;;;;;;4.90;1.77;;;25.70;95.90;;;;;;5027069;28;20022;-57
2022/06/20 04:30:24;;;;;;;;;;;25.70;95.90;;;;;;5027780;28;20310;-50
2022/06/20 04:33:00;;;;;;;7.60;2.20;;;25.70;95.90;;;;;;5027315;28;19984;-55
2022/06/20 04:35:29;;;;;;;6.53;2.10;;;25.70;95.90;;;;;;5026596;28;20028;-56
2022/06/20 04:37:56;;;;;;;6.68;2.28;;;25.70;96.00;;;;;;5027400;28;20026;-53
2022/06/20 04:40:28;;;;;;;8.32;2.00;;;25.70;96.00;;;;;;5027543;28;20022;-55
2022/06/20 04:43:01;;;;;;;7.38;2.10;;;25.70;96.00;;;;;;5027199;28;20034;-53
2022/06/20 04:45:38;;;;;;;7.07;2.70;;;25.60;96.00;;;;;;5027363;28;20028;-52
2022/06/20 04:48:11;;;;;;;5.70;2.38;;;25.60;96.00;;;;;;5026883;28;20037;-54
2022/06/20 04:50:40;;;;;;;6.32;2.80;;;25.60;96.00;;;;;;5026941;28;20072;-54
2022/06/20 04:53:12;;;;;;;6.30;2.65;;;25.60;96.00;;;;;;5026549;28;20022;-56
2022/06/20 04:55:48;;;;;;;8.20;3.05;;;25.60;96.00;;;;;;5026200;28;20195;-50
2022/06/20 04:58:23;;;;;;;7.10;2.67;;;25.70;96.10;;;;;;5027349;28;19917;-51
2022/06/20 05:00:52;;;;;;;9.07;2.95;;;25.70;95.80;;;;;;5026751;28;20109;-49
2022/06/20 05:03:27;;;;;;;8.25;2.88;;;25.80;95.80;;;;;;5031374;28;20205;-48
2022/06/20 05:05:57;;;;;;;7.53;2.60;;;25.70;96.10;;;;;;5045409;28;20036;-44
2022/06/20 05:08:31;;;;;;;9.43;3.63;;;25.70;95.80;;;;;;5045013;28;20049;-46
2022/06/20 05:11:11;;;;;;;7.65;2.88;;;25.70;95.80;;;;;;5045791;28;20025;-47
2022/06/20 05:14:04;;;;;;;7.65;3.42;;;25.80;95.90;;;;;;5045627;28;20036;-47
2022/06/20 05:16:34;;;;;;;9.85;2.95;;;25.80;95.90;;;;;;5045117;28;20045;-49
2022/06/20 05:19:07;;;;;;;10.20;3.47;;;25.70;95.90;;;;;;5046086;28;20032;-47
2022/06/20 05:21:47;;;;;;;7.63;2.80;;;25.70;96.00;;;;;;5045557;28;20296;-45
2022/06/20 05:24:17;;;;;;;7.95;3.45;;;25.70;96.00;;;;;;5045973;28;20055;-49
2022/06/20 05:26:47;;;;;;;11.10;3.22;;;25.70;96.00;;;;;;5045459;28;20039;-45
2022/06/20 05:29:32;;;;;;;8.80;3.10;;;25.70;96.00;;;;;;5045532;28;20049;-50
2022/06/20 05:32:04;;;;;;;10.15;3.00;;;25.70;96.00;;;;;;5037618;28;20022;-47
2022/06/20 05:34:43;;;;;;;;;;;25.70;96.00;;;;;;5042579;28;20025;-46
2022/06/20 05:37:26;;;;;;;10.82;3.20;;;25.70;96.10;;;;;;5045417;28;20199;-53
2022/06/20 05:40:18;;;;;;;6.75;2.55;;;25.70;96.10;;;;;;5045403;28;20048;-44
2022/06/20 05:42:45;;;;;;;8.90;2.85;;;25.70;96.20;;;;;;5044876;28;20048;-50
2022/06/20 05:45:17;;;;;;;5.80;2.33;;;25.70;96.20;;;;;;5044605;28;20233;-52
2022/06/20 05:47:49;;;;;;;8.45;2.88;;;25.70;96.10;;;;;;5044968;28;20325;-47
2022/06/20 05:50:18;;;;;;;7.85;2.47;;;25.70;96.10;;;;;;5045081;28;20336;-45
2022/06/20 05:52:46;;;;;;;7.97;2.47;;;25.70;96.40;;;;;;5045071;28;20332;-44
2022/06/20 05:55:23;;;;;;;6.50;2.90;;;25.70;96.20;;;;;;5044985;28;20017;-46
2022/06/20 05:57:50;;;;;;;9.05;2.80;;;25.70;96.30;;;;;;5044717;28;20040;-45
2022/06/20 06:00:24;;;;;;;10.43;2.83;;;25.70;96.20;;;;;;5044777;28;20124;-46
2022/06/20 06:03:03;;;;;;;8.25;2.53;;;25.70;96.30;;;;;;5044941;28;20029;-46
2022/06/20 06:05:55;;;;;;;8.02;2.58;;;25.70;96.20;;;;;;5044902;28;20044;-45
2022/06/20 06:08:38;;;;;;;10.07;2.70;;;25.70;96.30;;;;;;5042075;28;20117;-49
2022/06/20 06:11:16;;;;;;;8.77;2.80;;;25.70;96.30;;;;;;5044665;28;20017;-46
2022/06/20 06:13:58;;;;;;;10.43;2.83;;;25.70;96.30;;;;;;5045016;28;20026;-47
2022/06/20 06:16:46;;;;;;;9.25;2.72;;;25.60;96.30;;;;;;5044616;28;20013;-49
2022/06/20 06:19:15;;;;;;;11.05;3.15;;;25.60;96.30;;;;;;5045039;28;20072;-46
2022/06/20 06:21:45;;;;;;;10.13;3.25;;;25.60;96.40;;;;;;5044543;28;20329;-45
2022/06/20 06:24:16;;;;;;;10.98;3.08;;;25.60;96.40;;;;;;5043589;28;20048;-47
2022/06/20 06:26:45;;;;;;;15.18;3.53;;;25.60;96.40;;;;;;5044714;28;20278;-53
2022/06/20 06:29:23;;;;;;;9.75;3.45;;;25.60;96.40;;;;;;5044736;28;20039;-51
2022/06/20 06:31:55;;;;;;;10.98;3.90;;;25.60;96.40;;;;;;5044205;28;20088;-55
2022/06/20 06:34:36;;;;;;;15.77;3.85;;;25.60;96.40;;;;;;5044640;28;20049;-46
2022/06/20 06:37:12;;;;;;;12.77;3.47;;;25.60;96.40;;;;;;5044273;28;20064;-43
2022/06/20 06:40:16;;;;;;;15.50;3.97;;;25.60;96.50;;;;;;5044372;28;20376;-45
2022/06/20 06:42:43;;;;;;;9.35;3.45;;;25.60;96.40;;;;;;5041156;28;20348;-44
2022/06/20 06:45:21;;;;;;;10.95;3.78;;;25.60;96.40;;;;;;5044044;28;20013;-47
2022/06/20 06:47:57;;;;;;;12.02;3.90;;;25.50;96.40;;;;;;5044188;28;20021;-48
2022/06/20 06:50:46;;;;;;;14.32;4.20;;;25.50;96.40;;;;;;5043820;28;20209;-43
2022/06/20 06:53:28;;;;;;;10.57;3.58;;;25.60;96.50;;;;;;5044324;28;20033;-51
2022/06/20 06:56:04;;;;;;;7.35;3.40;;;25.60;96.50;;;;;;5044047;28;20362;-42
2022/06/20 06:58:43;;;;;;;9.73;3.63;;;25.50;96.50;;;;;;5043899;28;20254;-45
2022/06/20 07:01:25;;;;;;;11.57;3.60;;;25.50;96.50;;;;;;5043763;28;20111;-46
2022/06/20 07:04:14;;;;;;;12.43;3.85;;;25.50;96.40;;;;;;5044166;28;20045;-47
2022/06/20 07:06:46;;;;;;;7.18;3.50;;;25.50;96.50;;;;;;5044346;28;20021;-51
2022/06/20 07:09:31;;;;;;;8.40;3.35;;;25.50;96.40;;;;;;5044138;28;20056;-51
2022/06/20 07:12:07;;;;;;;8.75;3.15;;;25.50;96.30;;;;;;5043908;28;20049;-50
2022/06/20 07:14:40;;;;;;;6.65;2.72;;;25.50;96.30;;;;;;5043671;28;20056;-45
2022/06/20 07:17:38;;;;;;;7.88;2.70;;;25.50;96.20;;;;;;5043689;28;20017;-45
2022/06/20 07:20:06;;;;;;;10.05;3.30;;;25.50;96.10;;;;;;5043270;28;20385;-44
2022/06/20 07:22:32;;;;;;;9.45;3.10;;;25.60;96.10;;;;;;5043972;28;20321;-45
2022/06/20 07:24:59;;;;;;;10.48;2.97;;;25.60;96.10;;;;;;5043694;28;20017;-44
2022/06/20 07:27:29;;;;;;;12.73;2.97;;;25.60;96.00;;;;;;5043897;28;20087;-47
2022/06/20 07:30:12;;;;;;;9.65;3.17;;;25.60;96.00;;;;;;5043603;28;20021;-46
2022/06/20 07:32:41;;;;;;;9.90;2.70;;;25.60;96.00;;;;;;5043750;28;20030;-48
2022/06/20 07:35:26;;;;;;;14.82;3.47;;;25.60;96.00;;;;;;5043589;28;20031;-47
2022/06/20 07:38:29;;;;;;;10.65;3.10;;;25.60;96.00;;;;;;5043786;28;20022;-45
2022/06/20 07:41:04;;;;;;;13.20;3.38;;;25.60;95.90;;;;;;5043387;28;20021;-51
2022/06/20 07:43:38;;;;;;;8.48;2.53;;;25.60;95.90;;;;;;5043868;28;20033;-51
2022/06/20 07:46:21;;;;;;;11.50;2.90;;;25.60;95.90;;;;;;5043440;28;20209;-52
2022/06/20 07:48:52;;;;;;;10.00;3.22;;;25.60;95.90;;;;;;5044057;28;20313;-47
2022/06/20 07:51:38;;;;;;;10.90;2.80;;;25.60;95.90;;;;;;5043150;28;20021;-48
2022/06/20 07:54:16;;;;;;;7.72;2.70;;;25.60;95.90;;;;;;5043936;28;20083;-47
2022/06/20 07:56:59;;;;;;;5.93;2.13;;;25.60;95.80;;;;;;5043486;28;20021;-45
2022/06/20 07:59:35;;;;;;;7.22;2.33;;;25.60;95.80;;;;;;5043427;28;20041;-45
2022/06/20 08:02:22;;;;;;;7.45;2.80;;;25.60;95.80;;;;;;5043494;28;20071;-44
2022/06/20 08:04:56;;;;;;;9.90;2.85;;;25.70;95.80;;;;;;5043394;28;20025;-44
2022/06/20 08:08:02;;;;;;;6.72;2.40;;;25.70;95.80;;;;;;5043514;28;20028;-46
2022/06/20 08:10:51;;;;;;;10.68;2.72;;;25.60;95.70;;;;;;5045300;28;20112;-46
2022/06/20 08:13:24;;;;;;;6.85;2.47;;;25.60;95.70;;;;;;5047079;28;20026;-47
2022/06/20 08:15:58;;;;;;;;;;;25.60;95.70;;;;;;5047386;28;20010;-46
2022/06/20 08:18:26;;;;;;;8.63;2.40;;;25.60;95.70;;;;;;5047198;28;20101;-48
2022/06/20 08:21:01;;;;;;;7.00;2.30;;;25.60;95.70;;;;;;5046777;28;20092;-52
2022/06/20 08:23:38;;;;;;;6.60;2.35;;;25.60;95.70;;;;;;5047533;28;20056;-53
2022/06/20 08:26:12;;;;;;;8.23;2.50;;;25.60;95.80;;;;;;5046972;28;20021;-58
2022/06/20 08:28:59;;;;;;;10.75;2.28;;;25.60;95.80;;;;;;5046546;28;20060;-54
2022/06/20 08:31:33;;;;;;;7.63;2.30;;;25.60;95.80;;;;;;5046494;28;20298;-44
2022/06/20 08:34:14;;;;;;;5.93;2.40;;;25.60;95.80;;;;;;5047271;28;20036;-45
2022/06/20 08:36:53;;;;;;;6.45;2.28;;;25.60;95.80;;;;;;5046489;28;20025;-49
2022/06/20 08:39:20;;;;;;;9.05;2.65;;;25.60;95.80;;;;;;5046961;28;20045;-44
2022/06/20 08:42:17;;;;;;;9.15;2.53;;;25.60;95.80;;;;;;5046229;28;20024;-45
2022/06/20 08:45:02;;;;;;;9.77;2.60;;;25.60;95.80;;;;;;5046564;28;20048;-45
2022/06/20 08:48:03;;;;;;;6.47;2.40;;;25.60;95.80;;;;;;5046705;28;20037;-45
2022/06/20 08:50:38;;;;;;;8.13;2.40;;;25.60;95.80;;;;;;5046417;28;20029;-50
2022/06/20 08:53:32;;;;;;;5.68;2.20;;;25.60;95.80;;;;;;5046414;28;20021;-45
2022/06/20 08:56:37;;;;;;;8.27;2.50;;;25.60;95.80;;;;;;5046190;28;20018;-51
2022/06/20 08:59:25;;;;;;;10.05;2.47;;;25.60;95.80;;;;;;5045431;28;20044;-53
2022/06/20 09:02:22;;;;;;;5.05;2.30;;;25.60;95.80;;;;;;5045987;28;20040;-54
2022/06/20 09:05:24;;;;;;;8.73;2.70;;;25.50;95.80;;;;;;5046030;28;20309;-54
2022/06/20 09:08:35;;;;;;;5.28;2.50;;;25.50;95.80;;;;;;5045837;28;20068;-59
2022/06/20 09:11:05;;;;;;;5.47;2.30;;;25.60;95.90;;;;;;5045498;28;20045;-56
2022/06/20 09:14:04;;;;;;;7.63;2.58;;;25.60;95.90;;;;;;5046009;28;20332;-46
2022/06/20 09:16:33;;;;;;;9.20;2.50;;;25.60;95.90;;;;;;5045408;28;20033;-46
2022/06/20 09:19:28;;;;;;;8.05;2.72;;;25.50;95.80;;;;;;5046168;28;20021;-45
2022/06/20 09:22:04;;;;;;;7.90;2.47;;;25.60;95.90;;;;;;5045351;28;20017;-45
2022/06/20 09:24:58;;;;;;;9.18;2.72;;;25.50;95.80;;;;;;5045683;28;20036;-48
2022/06/20 09:27:38;;;;;;;12.43;3.08;;;25.60;95.90;;;;;;5045977;28;20018;-51
2022/06/20 09:30:06;;;;;;;8.10;2.97;;;25.50;95.90;;;;;;5045524;28;20025;-46
2022/06/20 09:32:48;;;;;;;6.25;2.88;;;25.60;95.90;;;;;;5045864;28;20045;-46
2022/06/20 09:35:34;;;;;;;12.27;3.00;;;25.60;95.90;;;;;;5045542;28;20022;-51
2022/06/20 09:38:03;;;;;;;9.07;2.90;;;25.60;95.90;;;;;;5045901;28;20085;-44
2022/06/20 09:40:42;;;;;;;7.35;3.17;;;25.50;95.90;;;;;;5045432;28;20025;-44
2022/06/20 09:43:36;;;;;;;10.70;3.10;;;25.60;95.90;;;;;;5045533;28;20217;-48
2022/06/20 09:46:26;;;;;;;6.95;2.92;;;25.60;95.90;;;;;;5045139;28;20317;-47
2022/06/20 09:49:19;;;;;;;11.90;3.03;;;25.60;95.90;;;;;;5045881;28;20037;-52
2022/06/20 09:52:06;;;;;;;10.88;3.15;;;25.60;95.90;;;;;;5044995;28;20221;-51
2022/06/20 09:54:59;;;;;;;10.18;3.47;;;25.60;95.90;;;;;;5045344;28;20029;-52
2022/06/20 09:57:44;;;;;;;10.63;3.38;;;25.60;95.90;;;;;;5045380;28;20021;-48
2022/06/20 10:00:31;;;;;;;11.18;3.20;;;25.60;95.90;;;;;;5045175;28;20053;-52
2022/06/20 10:03:28;;;;;;;10.52;3.20;;;25.60;95.90;;;;;;5044838;28;20360;-45
2022/06/20 10:06:26;;;;;;;13.70;3.72;;;25.60;95.90;;;;;;5044766;28;20088;-50
2022/06/20 10:08:55;;;;;;;7.53;3.40;;;25.60;95.90;;;;;;5045154;28;20025;-46
2022/06/20 10:11:25;;;;;;;10.40;3.63;;;25.50;96.10;;;;;;5044569;28;20025;-45
2022/06/20 10:14:08;;;;;;;9.60;3.22;;;25.50;96.10;;;;;;5045240;28;20181;-46
2022/06/20 10:17:09;;;;;;;7.93;3.17;;;25.50;96.20;;;;;;5044477;28;20024;-53
2022/06/20 10:19:39;;;;;;;14.55;2.97;;;25.50;96.20;;;;;;5043840;28;20036;-46
2022/06/20 10:22:11;;;;;;;10.68;3.50;;;25.50;96.20;;;;;;5044442;28;20016;-49
2022/06/20 10:24:47;;;;;;;7.05;3.13;;;25.50;96.20;;;;;;5044406;28;20048;-53
2022/06/20 10:27:19;;;;;;;7.80;3.03;;;25.50;96.20;;;;;;5044290;28;20036;-45
2022/06/20 10:29:49;;;;;;;8.63;2.90;;;25.50;96.20;;;;;;5044434;28;20014;-48
2022/06/20 10:32:17;;;;;;;11.40;3.10;;;25.50;96.20;;;;;;5043438;28;20013;-50
2022/06/20 10:35:04;;;;;;;9.80;2.72;;;25.50;96.20;;;;;;5044286;28;20077;-46
2022/06/20 10:37:42;;;;;;;8.40;2.88;;;25.60;96.20;;;;;;5040445;28;20122;-46
2022/06/20 10:40:22;;;;;;;10.55;3.28;;;25.60;96.30;;;;;;5044109;28;20021;-48
2022/06/20 10:42:51;;;;;;;12.43;3.50;;;25.50;96.20;;;;;;5044166;28;20033;-49
2022/06/20 10:45:44;;;;;;;9.63;3.40;;;25.50;96.30;;;;;;5044378;28;20017;-45
2022/06/20 10:48:13;;;;;;;;;;;25.50;96.30;;;;;;5044314;28;20036;-45
2022/06/20 10:50:50;;;;;;;8.52;2.90;;;25.50;96.30;;;;;;5043830;28;19911;-47
2022/06/20 10:53:52;;;;;;;7.60;3.05;;;25.50;96.30;;;;;;5044119;28;20036;-47
2022/06/20 10:56:49;;;;;;;7.67;2.67;;;25.50;96.60;;;;;;5035729;28;20031;-55
2022/06/20 10:59:28;;;;;;;12.77;3.60;;;25.50;96.40;;;;;;5044169;28;20042;-46
2022/06/20 11:02:03;;;;;;;10.55;3.45;;;25.50;96.40;;;;;;5062811;28;20312;-48
2022/06/20 11:04:45;;;;;;;13.18;3.50;;;25.50;96.40;;;;;;5063859;28;20092;-46
2022/06/20 11:07:15;;;;;;;14.20;3.40;;;25.50;96.60;;;;;;5063381;28;20047;-45
2022/06/20 11:10:04;;;;;;;8.75;3.40;;;25.50;96.50;;;;;;5043308;28;20021;-49
2022/06/20 11:12:53;;;;;;;9.70;3.42;;;25.50;96.60;;;;;;5044325;28;20305;-49
2022/06/20 11:15:29;;;;;;;10.07;3.05;;;25.40;96.60;;;;;;5063757;28;20309;-47
2022/06/20 11:18:14;;;;;;;11.13;3.75;;;25.40;96.70;;;;;;5064050;28;20331;-55
2022/06/20 11:20:50;;;;;;;14.75;5.05;;;25.40;96.70;;;;;;5063591;28;20077;-46
2022/06/20 11:23:52;;;;;;;14.30;6.10;;;25.40;96.80;;;;;;5063945;28;20092;-46
2022/06/20 11:26:28;;;;;;;23.13;11.77;;;25.40;96.70;;;;;;5063563;28;20052;-45
2022/06/20 11:29:18;;;;;;;26.30;9.18;;;25.40;96.80;;;;;;5064090;28;20021;-49
2022/06/20 11:32:03;;;;;;;34.33;16.20;;;25.40;96.70;;;;;;5063377;28;20024;-45
2022/06/20 11:34:30;;;;;;;33.88;20.30;;;25.40;96.80;;;;;;5063476;28;20032;-46
2022/06/20 11:37:39;;;;;;;22.65;14.10;;;25.40;96.80;;;;;;5063332;28;20021;-45
2022/06/20 11:40:17;;;;;;;17.60;11.13;;;25.40;96.70;;;;;;5063113;28;20032;-48
2022/06/20 11:42:49;;;;;;;19.50;10.13;;;25.40;96.70;;;;;;5063243;28;20339;-48
2022/06/20 11:45:26;;;;;;;;;;;25.40;96.70;;;;;;5067716;28;20029;-46
2022/06/20 11:48:18;;;;;;;12.98;5.80;;;25.40;96.60;;;;;;5067457;28;19912;-45
2022/06/20 11:50:57;;;;;;;10.87;5.10;;;25.40;96.70;;;;;;5067181;28;20088;-46
2022/06/20 11:53:42;;;;;;;8.68;4.72;;;25.40;96.70;;;;;;5067394;28;20268;-44
2022/06/20 11:56:41;;;;;;;13.50;4.28;;;25.40;96.60;;;;;;5067058;28;20209;-50
2022/06/20 11:59:29;;;;;;;11.27;4.38;;;25.40;96.60;;;;;;5067162;28;20023;-47
2022/06/20 12:02:11;;;;;;;10.60;3.55;;;25.50;96.60;;;;;;5066956;28;20025;-45
2022/06/20 12:05:21;;;;;;;12.60;3.92;;;25.50;96.60;;;;;;5067294;28;20029;-52
2022/06/20 12:08:00;;;;;;;9.20;3.42;;;25.50;96.70;;;;;;5053787;28;20021;-51
2022/06/20 12:10:40;;;;;;;14.25;3.20;;;25.50;96.70;;;;;;5066879;28;20249;-51
2022/06/20 12:13:40;;;;;;;7.60;2.58;;;25.50;96.60;;;;;;5067163;28;20013;-46
2022/06/20 12:16:34;;;;;;;6.45;2.70;;;25.50;96.60;;;;;;5066980;28;20017;-47
2022/06/20 12:24:35;;;;;;;8.30;2.42;;;25.50;96.60;;;;;;5066636;28;20060;-56
2022/06/20 12:27:02;;;;;;;9.45;2.40;;;25.50;96.50;;;;;;5066788;28;20083;-46
2022/06/20 12:29:31;;;;;;;5.65;2.30;;;25.50;96.40;;;;;;5066842;28;20033;-52
2022/06/20 12:32:00;;;;;;;6.88;2.42;;;25.50;96.30;;;;;;5066613;28;20088;-45
2022/06/20 12:34:55;;;;;;;8.05;2.25;;;25.60;96.50;;;;;;5066491;28;20367;-50
2022/06/20 12:37:52;;;;;;;6.20;2.13;;;25.60;96.40;;;;;;5066631;28;20016;-51
2022/06/20 12:40:36;;;;;;;8.25;2.08;;;25.60;96.30;;;;;;5066097;28;20081;-46
2022/06/20 12:43:23;;;;;;;8.57;2.17;;;25.60;96.40;;;;;;5066622;28;20042;-46
2022/06/20 12:46:14;;;;;;;9.85;2.38;;;25.60;96.30;;;;;;5066205;28;20079;-49
2022/06/20 12:48:44;;;;;;;5.22;1.85;;;25.60;96.20;;;;;;5066800;28;20024;-46
2022/06/20 12:51:29;;;;;;;4.22;2.00;;;25.60;96.10;;;;;;5066097;28;20071;-46
2022/06/20 12:54:14;;;;;;;6.55;2.00;;;25.60;96.20;;;;;;5066716;28;20024;-47
2022/06/20 12:56:53;;;;;;;4.60;1.98;;;25.70;96.30;;;;;;5065159;28;20020;-46
2022/06/20 12:59:33;;;;;;;11.15;2.30;;;25.70;96.30;;;;;;5066278;28;20053;-49
2022/06/20 13:02:12;;;;;;;7.20;1.90;;;25.70;96.10;;;;;;5066280;28;20033;-60
2022/06/20 13:04:53;;;;;;;5.35;1.83;;;25.70;96.10;;;;;;5066553;28;20032;-57
2022/06/20 13:08:02;;;;;;;6.50;1.80;;;25.70;96.10;;;;;;5065849;28;20020;-45
2022/06/20 13:10:40;;;;;;;4.32;1.60;;;25.70;96.20;;;;;;5065773;28;20060;-50
2022/06/20 13:13:45;;;;;;;6.63;1.70;;;25.70;96.20;;;;;;5066520;28;20021;-46
2022/06/20 13:16:53;;;;;;;5.22;1.63;;;25.70;96.20;;;;;;5057667;28;20316;-52
2022/06/20 13:19:44;;;;;;;6.78;1.90;;;25.70;96.20;;;;;;5063098;28;20079;-53
2022/06/20 13:22:25;;;;;;;6.15;1.60;;;25.70;96.20;;;;;;5065739;28;20021;-54
2022/06/20 13:25:04;;;;;;;7.28;1.83;;;25.70;96.10;;;;;;5065889;28;20020;-55
2022/06/20 13:27:42;;;;;;;3.47;1.60;;;25.70;96.00;;;;;;5065522;28;20032;-62
2022/06/20 13:30:25;;;;;;;7.68;2.13;;;25.70;95.90;;;;;;5065257;28;20048;-58
2022/06/20 13:33:04;;;;;;;9.80;2.00;;;25.70;95.80;;;;;;5065830;28;20092;-49
2022/06/20 13:35:49;;;;;;;7.05;1.70;;;25.70;95.80;;;;;;5065258;28;20077;-51
2022/06/20 13:38:22;;;;;;;5.45;1.92;;;25.70;95.70;;;;;;5065742;28;20028;-51
2022/06/20 13:41:27;;;;;;;4.97;1.90;;;25.80;95.70;;;;;;5065262;28;20067;-47
2022/06/20 13:44:14;;;;;;;7.00;2.20;;;25.80;95.80;;;;;;5053328;28;20431;-44
2022/06/20 13:46:54;;;;;;;7.00;2.45;;;25.80;95.80;;;;;;5065175;28;20036;-46
2022/06/20 13:49:27;;;;;;;5.50;2.25;;;25.80;95.80;;;;;;5065440;28;20098;-52
2022/06/20 13:52:00;;;;;;;8.65;2.40;;;25.80;95.90;;;;;;5065204;28;20028;-52
2022/06/20 13:54:29;;;;;;;;;;;25.80;95.90;;;;;;5065366;28;20025;-44
2022/06/20 13:57:02;;;;;;;9.25;2.25;;;25.80;96.00;;;;;;5065262;28;19938;-47
2022/06/20 13:59:40;;;;;;;7.07;2.53;;;25.80;96.20;;;;;;5064794;28;20062;-48